Terminal Aerodrome Forecast
Issued by NWS

Home | Current Version | Previous Version | Text Only | Print | Product List | Glossary On
Versions: 1 2 3 4 5 6 7 8 9 10 11 12 13 14 15 16 17 18 19 20 21 22 23 24 25
000
FTUS43 KDLH 261820 AAA
TAFHIB
TAF AMD
KHIB 261820Z 2618/2718 17009G14KT P6SM SCT030 BKN045
     FM261900 19012KT P6SM VCTS BKN045CB
      TEMPO 2619/2621 P6SM -SHRA BKN050
     FM262100 25010KT P6SM VCSH BKN060
     FM270200 27007KT P6SM SCT050
     FM270800 VRB03KT P6SM SCT150=

USA.gov is the U.S. government's official web portal to all federal, state and local government web resources and services.